Terminal Aerodrome Forecast
Issued by NWS North Platte, NE

Home | Current Version | Previous Version | Graphics & Text | Print | Product List | Glossary On
Versions: 1 2 3 4 5 6 7 8 9 10 11 12 13 14 15 16 17 18 19 20
000
FTUS43 KLBF 232300
TAFVTN
TAF
KVTN 232320Z 2400/2424 17016G25KT P6SM VCTS SCT050CB BKN150
     FM240600 18008G16KT P6SM BKN150
     FM241000 18009KT P6SM BKN015
     FM241600 20012KT P6SM BKN200
     FM242100 15009KT P6SM BKN050=

USA.gov is the U.S. government's official web portal to all federal, state and local government web resources and services.